Time;durP1;ratioP1;P1;durP2;ratioP2;P2;SDS_P1;SDS_P2;PMS_P1;PMS_P2;Temp;Humidity;BMP_temperature;BMP_pressure;BME280_temperature;BME280_humidity;BME280_pressure;Samples;Min_cycle;Max_cycle;Signal;HPM_P1;HPM_P2
2023/08/26 00:01:02;;;;;;;26.73;21.58;;;;;;;22.06;79.58;97585.31;10321373;28;20076;-55
2023/08/26 00:06:01;;;;;;;27.88;21.73;;;;;;;21.67;78.95;97518.53;10322987;28;20065;-55
2023/08/26 00:11:00;;;;;;;30.50;21.88;;;;;;;22.06;78.77;97587.97;10324345;28;20125;-55
2023/08/26 00:15:59;;;;;;;23.98;21.40;;;;;;;22.05;78.92;97578.34;10323424;28;20034;-55
2023/08/26 00:20:58;;;;;;;28.08;22.38;;;;;;;21.92;79.64;97565.72;10324431;28;20037;-55
2023/08/26 00:25:57;;;;;;;25.60;21.15;;;;;;;21.57;79.23;97514.63;10321424;28;20522;-55
2023/08/26 00:31:00;;;;;;;25.00;21.75;;;;;;;21.92;79.43;97576.28;10321562;28;20124;-57
2023/08/26 00:35:58;;;;;;;26.20;21.13;;;;;;;21.31;80.14;97479.81;10322598;28;20052;-54
2023/08/26 00:40:58;;;;;;;26.65;21.95;;;;;;;21.79;79.94;97563.75;10320565;28;20038;-54
2023/08/26 00:45:58;;;;;;;33.13;25.13;;;;;;;21.79;79.91;97567.25;10323322;28;20736;-55
2023/08/26 00:50:58;;;;;;;25.90;23.10;;;;;;;21.70;80.28;97562.41;10330142;28;20068;-55
2023/08/26 00:55:59;;;;;;;27.13;22.83;;;;;;;21.70;80.51;97559.75;10327410;28;20492;-56
2023/08/26 01:00:58;;;;;;;27.55;22.35;;;;;;;21.26;80.75;97508.19;10329771;28;20104;-56
2023/08/26 01:05:57;;;;;;;25.40;21.33;;;;;;;21.62;80.81;97556.66;10330788;28;20087;-56
2023/08/26 01:11:20;;;;;;;23.05;19.73;;;;;;;21.45;82.16;97571.53;10328412;28;20381;-56
2023/08/26 01:16:22;;;;;;;22.33;19.73;;;;;;;21.37;82.34;97567.53;10329499;28;20057;-55
2023/08/26 01:21:29;;;;;;;23.65;20.83;;;;;;;21.36;82.02;97571.97;10328937;28;20064;-55
2023/08/26 01:26:28;;;;;;;24.77;20.73;;;;;;;21.28;82.30;97580.22;10328400;28;20113;-55
2023/08/26 01:31:31;;;;;;;26.20;20.48;;;;;;;21.16;82.96;97579.94;10327567;28;20029;-55
2023/08/26 01:36:34;;;;;;;26.33;22.67;;;;;;;21.00;83.68;97580.63;10327756;28;20467;-55
2023/08/26 01:41:35;;;;;;;26.23;23.42;;;;;;;20.81;84.61;97580.59;10329244;28;20087;-55
2023/08/26 01:46:37;;;;;;;27.40;23.10;;;;;;;20.76;84.44;97566.78;10329641;28;20498;-56
2023/08/26 01:51:37;;;;;;;27.50;23.80;;;;;;;20.71;84.89;97563.50;10329535;28;20134;-55
2023/08/26 01:56:36;;;;;;;26.25;23.00;;;;;;;20.68;84.69;97555.69;10329033;28;20060;-54
2023/08/26 02:01:35;;;;;;;25.48;22.63;;;;;;;20.69;84.51;97549.53;10328344;28;20033;-54
2023/08/26 02:06:34;;;;;;;28.02;23.27;;;;;;;20.66;84.45;97549.66;10328838;28;20026;-54
2023/08/26 02:11:33;;;;;;;26.08;23.15;;;;;;;20.62;84.67;97556.84;10328777;28;20068;-54
2023/08/26 02:16:32;;;;;;;27.60;23.65;;;;;;;20.53;84.65;97544.06;10327347;28;20043;-54
2023/08/26 02:21:31;;;;;;;27.90;23.88;;;;;;;20.60;84.95;97550.78;10326644;28;20036;-54
2023/08/26 02:26:30;;;;;;;27.23;23.23;;;;;;;20.57;85.10;97545.66;10328257;28;20036;-54
2023/08/26 02:31:29;;;;;;;28.75;23.48;;;;;;;20.53;85.44;97541.44;10327850;28;20120;-54
2023/08/26 02:36:28;;;;;;;31.83;24.27;;;;;;;20.52;85.67;97547.66;10327674;28;20017;-54
2023/08/26 02:41:27;;;;;;;28.17;24.35;;;;;;;20.31;85.88;97509.03;10326942;28;20116;-54
2023/08/26 02:46:26;;;;;;;30.13;24.98;;;;;;;20.44;85.97;97532.16;10325570;28;20037;-54
2023/08/26 02:51:25;;;;;;;30.55;24.05;;;;;;;20.51;86.28;97551.19;10325947;28;20464;-54
2023/08/26 02:56:24;;;;;;;29.98;24.70;;;;;;;20.27;86.50;97516.19;10326872;28;20047;-54
2023/08/26 03:01:24;;;;;;;28.55;25.20;;;;;;;20.49;86.61;97553.03;10326568;28;20036;-54
2023/08/26 03:06:23;;;;;;;28.55;25.33;;;;;;;20.45;86.88;97552.31;10326359;28;20109;-54
2023/08/26 03:11:22;;;;;;;34.75;24.92;;;;;;;20.22;87.09;97512.91;10326413;28;20067;-54
2023/08/26 03:16:21;;;;;;;25.95;21.38;;;;;;;20.13;87.38;97508.91;10325934;28;20142;-54
2023/08/26 03:21:20;;;;;;;26.85;22.33;;;;;;;20.37;87.06;97548.28;10324078;28;20033;-54
2023/08/26 03:26:19;;;;;;;29.63;23.42;;;;;;;20.17;86.49;97528.09;10326070;28;20728;-54
2023/08/26 03:31:18;;;;;;;27.38;22.45;;;;;;;20.32;87.34;97566.91;10325844;28;20025;-54
2023/08/26 03:36:17;;;;;;;34.28;24.40;;;;;;;20.23;87.49;97565.53;10325255;28;20116;-54
2023/08/26 03:41:16;;;;;;;29.38;23.38;;;;;;;20.11;87.71;97566.06;10325629;28;20076;-54
2023/08/26 03:46:15;;;;;;;31.83;23.42;;;;;;;19.94;88.05;97576.47;10322128;28;20131;-54
2023/08/26 03:51:14;;;;;;;27.17;23.15;;;;;;;19.81;88.69;97576.09;10321477;28;20037;-53
2023/08/26 03:56:16;;;;;;;27.75;24.13;;;;;;;19.66;89.11;97564.44;10324674;28;20025;-53
2023/08/26 04:01:15;;;;;;;28.80;24.38;;;;;;;19.83;88.82;97584.78;10322053;28;20056;-54
2023/08/26 04:06:15;;;;;;;29.67;24.08;;;;;;;19.81;88.72;97582.25;10324111;28;20479;-54
2023/08/26 04:11:17;;;;;;;25.52;22.83;;;;;;;19.94;88.85;97598.38;10325333;28;20068;-54
2023/08/26 04:16:16;;;;;;;24.98;22.23;;;;;;;19.88;88.68;97580.19;10322932;28;20080;-54
2023/08/26 04:21:15;;;;;;;24.73;22.08;;;;;;;20.03;88.59;97597.16;10322188;28;20811;-54
2023/08/26 04:26:14;;;;;;;25.83;23.08;;;;;;;20.07;88.45;97598.72;10332237;28;20496;-54
2023/08/26 04:31:13;;;;;;;28.80;24.13;;;;;;;20.15;87.83;97595.78;10331917;28;20060;-54
2023/08/26 04:36:12;;;;;;;27.45;23.50;;;;;;;20.23;87.68;97612.09;10332151;28;20030;-54
2023/08/26 04:41:11;;;;;;;28.08;23.85;;;;;;;20.25;87.49;97612.91;10331649;28;20056;-54
2023/08/26 04:46:10;;;;;;;29.65;23.77;;;;;;;20.27;87.46;97603.16;10329638;28;20103;-54
2023/08/26 04:51:09;;;;;;;26.70;23.85;;;;;;;20.50;87.08;97610.97;10331067;28;20079;-54
2023/08/26 04:56:08;;;;;;;27.25;23.25;;;;;;;20.65;86.65;97612.06;10331944;28;20033;-54
2023/08/26 05:01:07;;;;;;;26.02;22.52;;;;;;;20.81;86.48;97612.25;10330163;28;20032;-54
2023/08/26 05:06:06;;;;;;;26.70;22.52;;;;;;;21.03;85.91;97611.28;10330838;28;20096;-54
2023/08/26 05:11:06;;;;;;;25.58;22.23;;;;;;;21.12;85.31;97614.38;10329668;28;20029;-54
2023/08/26 05:16:05;;;;;;;27.90;22.77;;;;;;;21.30;84.82;97599.50;10328038;28;20543;-54
2023/08/26 05:21:04;;;;;;;26.58;23.70;;;;;;;21.35;84.07;97551.75;10327964;28;20499;-54
2023/08/26 05:26:03;;;;;;;29.48;23.58;;;;;;;21.84;82.71;97589.00;10329791;28;20527;-54
2023/08/26 05:31:02;;;;;;;28.83;23.92;;;;;;;21.94;82.43;97586.75;10330211;28;20463;-54
2023/08/26 05:36:01;;;;;;;28.00;22.17;;;;;;;21.71;81.45;97548.25;10329122;28;20479;-54
2023/08/26 05:41:00;;;;;;;29.63;24.23;;;;;;;22.05;81.19;97588.91;10327681;28;20040;-54
2023/08/26 05:45:58;;;;;;;28.92;24.95;;;;;;;21.86;81.33;97550.16;10327527;28;20041;-54
2023/08/26 05:50:58;;;;;;;30.77;24.30;;;;;;;22.24;81.40;97587.03;10326566;28;20112;-54
2023/08/26 05:55:58;;;;;;;27.13;23.90;;;;;;;22.37;80.78;97582.84;10326789;28;20056;-54
2023/08/26 06:00:57;;;;;;;29.85;22.52;;;;;;;22.53;79.99;97574.97;10323188;28;20081;-54
2023/08/26 06:05:56;;;;;;;26.23;22.20;;;;;;;22.39;79.39;97537.81;10326930;28;20033;-54
2023/08/26 06:10:56;;;;;;;28.15;21.40;;;;;;;22.82;78.89;97591.13;10328145;28;20040;-54
2023/08/26 06:15:56;;;;;;;22.70;20.30;;;;;;;23.01;77.23;97588.34;10328100;28;20065;-54
2023/08/26 06:20:55;;;;;;;27.05;20.08;;;;;;;23.17;77.24;97591.88;10326176;28;20061;-54
2023/08/26 06:25:55;;;;;;;25.85;20.05;;;;;;;22.89;77.60;97546.69;10327098;28;20033;-54
2023/08/26 06:31:03;;;;;;;24.05;19.58;;;;;;;23.47;75.41;97591.16;10326829;28;20072;-55
2023/08/26 06:36:02;;;;;;;23.50;19.53;;;;;;;23.70;74.52;97586.34;10324780;28;20150;-55
2023/08/26 06:41:01;;;;;;;22.63;18.27;;;;;;;24.08;74.36;97601.84;10325271;28;20079;-55
2023/08/26 06:46:00;;;;;;;20.40;18.13;;;;;;;24.17;71.99;97573.00;10324768;28;20050;-55
2023/08/26 06:50:59;;;;;;;20.73;18.48;;;;;;;24.34;71.08;97556.13;10324727;28;20036;-55
2023/08/26 06:55:58;;;;;;;24.38;18.73;;;;;;;24.72;69.13;97568.00;10326917;28;20044;-55
2023/08/26 07:00:57;;;;;;;20.42;17.67;;;;;;;25.13;68.27;97607.94;10326274;28;20121;-55
2023/08/26 07:05:56;;;;;;;22.27;17.52;;;;;;;25.43;65.87;97601.63;10326028;28;20032;-55
2023/08/26 07:10:55;;;;;;;19.67;17.65;;;;;;;25.61;64.87;97596.97;10323330;28;20026;-55
2023/08/26 07:15:54;;;;;;;21.40;18.23;;;;;;;25.83;64.14;97591.09;10322964;28;20910;-55
2023/08/26 07:20:53;;;;;;;20.83;16.58;;;;;;;26.03;63.40;97563.22;10318664;28;20121;-55
2023/08/26 07:25:52;;;;;;;21.02;18.83;;;;;;;26.46;61.21;97585.13;10321047;28;20037;-55
2023/08/26 07:30:52;;;;;;;21.52;17.65;;;;;;;26.59;59.48;97558.53;10322663;28;20056;-55
2023/08/26 07:35:51;;;;;;;22.40;16.98;;;;;;;26.82;58.09;97582.72;10321189;28;20053;-55
2023/08/26 07:40:50;;;;;;;19.45;16.15;;;;;;;27.01;57.10;97559.19;10320664;28;20048;-54
2023/08/26 07:45:49;;;;;;;21.20;18.13;;;;;;;27.28;55.35;97582.97;10316428;28;20045;-55
2023/08/26 07:50:48;;;;;;;23.67;17.55;;;;;;;27.47;54.56;97576.34;10316895;28;20065;-55
2023/08/26 07:55:47;;;;;;;22.00;16.15;;;;;;;27.66;53.80;97566.06;10317527;28;20109;-55
2023/08/26 08:00:46;;;;;;;17.92;15.27;;;;;;;27.97;53.33;97569.97;10320935;28;20025;-55
2023/08/26 08:05:45;;;;;;;17.13;15.32;;;;;;;28.20;50.55;97570.94;10317060;28;20506;-55
2023/08/26 08:10:53;;;;;;;17.33;14.13;;;;;;;28.34;49.89;97545.03;10318700;28;20412;-55
2023/08/26 08:15:52;;;;;;;20.50;14.73;;;;;;;28.77;50.30;97561.25;10321098;28;20116;-55
2023/08/26 08:20:52;;;;;;;16.95;14.10;;;;;;;29.04;49.22;97550.22;10317750;28;20040;-54
2023/08/26 08:25:51;;;;;;;15.80;14.10;;;;;;;29.29;49.69;97540.25;10315263;28;20775;-54
2023/08/26 08:30:50;;;;;;;16.10;13.60;;;;;;;29.62;48.14;97543.81;10316057;28;20187;-55
2023/08/26 08:35:50;;;;;;;18.98;14.32;;;;;;;29.83;47.77;97542.03;10317594;28;20030;-55
2023/08/26 08:40:50;;;;;;;17.05;13.32;;;;;;;29.75;46.91;97509.75;10318487;28;20116;-55
2023/08/26 08:45:52;;;;;;;15.98;13.85;;;;;;;29.95;46.14;97529.50;10314851;28;20136;-55
2023/08/26 08:50:53;;;;;;;15.98;13.43;;;;;;;30.02;46.89;97495.88;10308403;28;20124;-55
2023/08/26 08:55:52;;;;;;;17.75;13.82;;;;;;;30.58;45.51;97529.53;10310043;28;20112;-55
2023/08/26 09:00:52;;;;;;;14.50;12.82;;;;;;;30.87;45.02;97531.53;10316241;28;20117;-55
2023/08/26 09:05:52;;;;;;;16.90;12.95;;;;;;;30.96;43.87;97533.44;10308560;28;20137;-55
2023/08/26 09:10:52;;;;;;;17.10;13.55;;;;;;;31.01;42.38;97490.13;10294566;28;20748;-55
2023/08/26 09:15:51;;;;;;;17.40;12.77;;;;;;;31.05;41.70;97478.97;10321555;28;20116;-55
2023/08/26 09:20:50;;;;;;;16.88;12.35;;;;;;;31.41;41.68;97516.91;10316830;28;20149;-55
2023/08/26 09:26:01;;;;;;;16.80;12.55;;;;;;;31.50;40.11;97488.38;10325212;28;20124;-55
2023/08/26 09:31:08;;;;;;;14.23;12.73;;;;;;;31.84;40.39;97504.97;10332745;28;20064;-55
2023/08/26 09:36:12;;;;;;;14.20;12.70;;;;;;;32.09;40.40;97494.69;10322772;28;20124;-55
2023/08/26 09:41:23;;;;;;;17.60;12.60;;;;;;;32.01;39.72;97450.59;10315939;28;20064;-55
2023/08/26 09:46:24;;;;;;;16.45;12.85;;;;;;;32.51;39.11;97473.66;10332957;28;20077;-58
2023/08/26 09:51:35;;;;;;;13.80;11.75;;;;;;;32.50;38.09;97489.91;10326262;28;20112;-55
2023/08/26 09:56:55;;;;;;;13.57;11.27;;;;;;;32.54;36.90;97485.94;10322900;28;20125;-56
2023/08/26 10:02:15;;;;;;;12.85;11.27;;;;;;;32.73;37.52;97480.53;10324880;28;20076;-55
2023/08/26 10:07:15;;;;;;;12.82;11.50;;;;;;;32.56;36.44;97468.69;10325611;28;20072;-55
2023/08/26 10:12:30;;;;;;;12.65;11.40;;;;;;;32.53;36.96;97484.25;10326297;28;20065;-55
2023/08/26 10:17:31;;;;;;;14.30;11.18;;;;;;;32.38;37.75;97470.44;10319122;28;20139;-55
2023/08/26 10:22:30;;;;;;;12.35;11.00;;;;;;;32.57;36.00;97465.03;10311003;28;20148;-57
2023/08/26 10:27:29;;;;;;;13.77;10.98;;;;;;;32.82;35.40;97462.69;10322608;28;20224;-55
2023/08/26 10:32:28;;;;;;;15.38;11.63;;;;;;;33.19;36.02;97440.28;10317263;28;20374;-55
2023/08/26 10:37:31;;;;;;;12.98;10.95;;;;;;;33.58;35.71;97442.69;10318572;28;20141;-55
2023/08/26 10:48:56;;;;;;;15.80;11.27;;;;;;;34.00;33.99;97434.81;10318093;28;20547;-55
2023/08/26 10:54:02;;;;;;;13.82;10.68;;;;;;;33.87;33.33;97420.94;10322958;28;20636;-55
2023/08/26 10:59:03;;;;;;;12.00;10.50;;;;;;;33.79;32.74;97432.47;10324261;28;20464;-55
2023/08/26 11:04:04;;;;;;;13.52;11.57;;;;;;;33.58;32.70;97427.41;10323043;28;20061;-55
2023/08/26 11:09:04;;;;;;;10.65;9.55;;;;;;;33.83;33.05;97414.16;10320969;28;20116;-55
2023/08/26 11:14:03;;;;;;;10.98;9.88;;;;;;;34.00;31.85;97415.13;10322867;28;20065;-55
2023/08/26 11:19:04;;;;;;;11.32;10.23;;;;;;;33.97;31.87;97415.44;10325367;28;20556;-55
2023/08/26 11:24:03;;;;;;;12.93;9.55;;;;;;;34.16;32.18;97403.66;10321402;28;20136;-55
2023/08/26 11:29:04;;;;;;;12.55;10.65;;;;;;;34.47;32.60;97412.94;10318869;28;20591;-55
2023/08/26 11:34:03;;;;;;;12.57;9.93;;;;;;;34.98;31.15;97404.91;10318067;28;20129;-55
2023/08/26 11:39:02;;;;;;;11.38;10.07;;;;;;;35.28;30.98;97400.78;10322848;28;20050;-55
2023/08/26 11:44:02;;;;;;;12.27;10.65;;;;;;;35.28;30.39;97381.91;10317726;28;20064;-55
2023/08/26 11:49:01;;;;;;;12.07;9.50;;;;;;;35.33;30.06;97366.03;10320732;28;20180;-55
2023/08/26 11:54:00;;;;;;;12.52;10.40;;;;;;;35.26;30.65;97385.78;10317955;28;20025;-55
2023/08/26 11:58:58;;;;;;;14.27;9.77;;;;;;;35.30;30.52;97350.22;10317983;28;20163;-55
2023/08/26 12:03:57;;;;;;;11.65;10.27;;;;;;;35.24;30.54;97372.44;10317461;28;20071;-55
2023/08/26 12:08:57;;;;;;;11.18;9.50;;;;;;;34.81;30.64;97325.81;10318269;28;20100;-56
2023/08/26 12:13:56;;;;;;;12.95;10.40;;;;;;;35.23;30.63;97375.31;10316667;28;20069;-55
2023/08/26 12:18:55;;;;;;;14.18;10.30;;;;;;;35.12;30.23;97371.09;10319714;28;20412;-55
2023/08/26 12:23:54;;;;;;;11.52;9.65;;;;;;;34.93;30.62;97364.09;10318146;28;20032;-55
2023/08/26 12:28:54;;;;;;;11.88;10.63;;;;;;;35.19;30.18;97353.22;10319374;28;20486;-55
2023/08/26 12:33:53;;;;;;;11.05;9.88;;;;;;;35.24;30.95;97350.03;10320380;28;20072;-55
2023/08/26 12:38:52;;;;;;;12.85;10.13;;;;;;;35.56;30.19;97343.81;10317353;28;20120;-55
2023/08/26 12:43:53;;;;;;;10.48;9.30;;;;;;;35.44;30.45;97343.28;10318935;28;20032;-55
2023/08/26 12:48:52;;;;;;;12.55;9.50;;;;;;;35.09;30.89;97336.34;10327072;28;20124;-55
2023/08/26 12:53:51;;;;;;;11.63;9.15;;;;;;;34.72;30.83;97313.34;10326755;28;20092;-55
2023/08/26 12:58:51;;;;;;;10.68;9.52;;;;;;;35.02;31.16;97329.91;10329037;28;20029;-55
2023/08/26 13:03:50;;;;;;;12.25;10.00;;;;;;;35.03;30.58;97300.06;10329732;28;20064;-55
2023/08/26 13:08:49;;;;;;;12.77;9.80;;;;;;;35.42;30.46;97326.44;10325849;28;20108;-55
2023/08/26 13:13:48;;;;;;;12.10;9.50;;;;;;;35.14;29.95;97258.50;10325206;28;20065;-55
2023/08/26 13:18:47;;;;;;;12.23;9.85;;;;;;;35.60;29.94;97302.00;10327814;28;20128;-55
2023/08/26 13:23:46;;;;;;;11.77;9.43;;;;;;;35.77;29.84;97313.59;10326873;28;20029;-55
2023/08/26 13:28:45;;;;;;;12.50;8.70;;;;;;;35.53;29.77;97306.38;10323184;28;20568;-55
2023/08/26 13:33:44;;;;;;;11.52;9.60;;;;;;;35.25;30.28;97290.53;10325307;28;20116;-55
2023/08/26 13:38:43;;;;;;;11.80;9.63;;;;;;;35.34;29.95;97307.56;10328061;28;20029;-55
2023/08/26 13:43:42;;;;;;;11.88;9.40;;;;;;;35.00;29.60;97268.06;10323355;28;20948;-55
2023/08/26 13:48:41;;;;;;;12.02;9.10;;;;;;;35.08;29.88;97294.19;10323665;28;20140;-55
2023/08/26 13:53:40;;;;;;;10.38;8.80;;;;;;;34.86;30.17;97291.13;10323558;28;20025;-55
2023/08/26 13:58:40;;;;;;;13.05;9.52;;;;;;;34.76;30.01;97287.75;10322612;28;20504;-55
2023/08/26 14:03:39;;;;;;;12.60;9.20;;;;;;;34.89;30.30;97285.44;10319909;28;20061;-55
2023/08/26 14:08:38;;;;;;;13.02;9.38;;;;;;;34.69;29.75;97262.47;10324481;28;20077;-55
2023/08/26 14:13:38;;;;;;;12.85;8.82;;;;;;;34.93;30.09;97278.66;10325833;28;20041;-55
2023/08/26 14:18:37;;;;;;;22.25;10.23;;;;;;;35.13;30.13;97281.09;10318082;28;20105;-55
2023/08/26 14:23:35;;;;;;;10.73;8.93;;;;;;;35.18;28.93;97280.59;10323243;28;20124;-55
2023/08/26 14:28:35;;;;;;;16.33;8.88;;;;;;;34.48;30.20;97247.56;10325025;28;20040;-55
2023/08/26 14:33:36;;;;;;;12.82;8.80;;;;;;;34.62;30.18;97246.13;10325930;28;20064;-56
2023/08/26 14:38:35;;;;;;;10.93;9.05;;;;;;;34.48;30.00;97273.66;10324875;28;20063;-55
2023/08/26 14:43:34;;;;;;;12.25;8.60;;;;;;;34.41;30.29;97276.19;10322246;28;20039;-55
2023/08/26 14:48:33;;;;;;;11.85;8.93;;;;;;;34.42;30.64;97275.16;10323141;28;20632;-55
2023/08/26 14:53:32;;;;;;;42.15;11.52;;;;;;;34.25;30.68;97251.88;10322875;28;20116;-55
2023/08/26 14:58:31;;;;;;;11.57;9.50;;;;;;;34.24;30.62;97269.06;10323847;28;20524;-55
2023/08/26 15:03:30;;;;;;;12.20;8.68;;;;;;;34.04;30.63;97271.13;10325263;28;20103;-57
2023/08/26 15:08:29;;;;;;;13.50;8.32;;;;;;;34.15;30.79;97268.16;10322198;28;20049;-55
2023/08/26 15:13:28;;;;;;;14.18;8.93;;;;;;;33.88;30.74;97250.34;10322991;28;20076;-55
2023/08/26 15:18:27;;;;;;;13.80;8.60;;;;;;;33.91;31.19;97268.00;10320246;28;20094;-55
2023/08/26 15:23:26;;;;;;;15.80;9.93;;;;;;;33.90;31.07;97275.25;10322191;28;20045;-55
2023/08/26 15:28:25;;;;;;;9.73;8.73;;;;;;;33.95;30.85;97275.59;10322322;28;20416;-55
2023/08/26 15:33:24;;;;;;;10.15;9.00;;;;;;;34.00;30.91;97269.75;10319956;28;20053;-56
2023/08/26 15:38:23;;;;;;;11.93;8.18;;;;;;;33.77;30.44;97266.75;10320697;28;20029;-55
2023/08/26 15:43:23;;;;;;;22.00;9.90;;;;;;;33.56;31.27;97250.97;10323003;28;20068;-55
2023/08/26 15:48:22;;;;;;;15.80;10.57;;;;;;;33.52;30.89;97265.75;10319554;28;20160;-55
2023/08/26 15:53:21;;;;;;;16.13;9.88;;;;;;;33.40;30.92;97243.66;10321165;28;20502;-55
2023/08/26 15:58:20;;;;;;;10.73;7.68;;;;;;;33.39;31.03;97258.94;10320809;28;20032;-55
2023/08/26 16:03:20;;;;;;;11.95;8.35;;;;;;;33.19;31.35;97252.06;10322373;28;20021;-55
2023/08/26 16:08:19;;;;;;;12.07;8.25;;;;;;;33.14;31.39;97262.44;10320326;28;20737;-55
2023/08/26 16:13:19;;;;;;;11.32;7.47;;;;;;;33.04;31.72;97257.97;10322438;28;20065;-55
2023/08/26 16:18:18;;;;;;;12.07;8.43;;;;;;;32.97;31.60;97250.66;10320828;28;20352;-55
2023/08/26 16:23:17;;;;;;;14.98;9.07;;;;;;;32.73;31.85;97237.84;10320116;28;20027;-55
2023/08/26 16:28:16;;;;;;;12.00;8.55;;;;;;;32.75;32.53;97263.56;10320782;28;20049;-55
2023/08/26 16:33:15;;;;;;;11.05;8.38;;;;;;;32.45;32.56;97229.81;10320814;28;20025;-55
2023/08/26 16:38:14;;;;;;;11.90;7.63;;;;;;;32.56;32.73;97253.78;10319092;28;20025;-55
2023/08/26 16:43:13;;;;;;;12.48;8.73;;;;;;;32.45;32.62;97261.22;10317925;28;20108;-56
2023/08/26 16:48:12;;;;;;;12.40;8.27;;;;;;;32.34;33.36;97267.63;10319680;28;20128;-55
2023/08/26 16:53:12;;;;;;;11.98;8.48;;;;;;;32.14;33.68;97261.53;10321415;28;20037;-55
2023/08/26 16:58:11;;;;;;;22.02;10.20;;;;;;;31.92;34.78;97282.38;10320844;28;20224;-55
2023/08/26 17:03:09;;;;;;;23.83;11.10;;;;;;;31.48;36.72;97289.25;10312228;28;20086;-55
2023/08/26 17:08:08;;;;;;;14.63;10.18;;;;;;;31.11;37.97;97293.50;10313531;28;20563;-55
2023/08/26 17:13:07;;;;;;;13.80;10.32;;;;;;;30.68;38.71;97302.78;10317644;28;20025;-55
2023/08/26 17:18:07;;;;;;;15.45;10.88;;;;;;;30.16;39.18;97272.59;10316936;28;20032;-55
2023/08/26 17:23:06;;;;;;;14.55;9.90;;;;;;;30.16;39.68;97309.22;10320044;28;20061;-54
2023/08/26 17:28:05;;;;;;;12.75;9.23;;;;;;;29.88;39.89;97304.47;10319967;28;20088;-54
2023/08/26 17:33:04;;;;;;;13.20;9.52;;;;;;;29.61;40.62;97298.78;10324109;28;20488;-55
2023/08/26 17:38:06;;;;;;;10.68;9.45;;;;;;;29.38;41.20;97295.41;10327054;28;20049;-54
2023/08/26 17:43:05;;;;;;;14.65;10.23;;;;;;;29.14;41.45;97296.47;10325557;28;20060;-55
2023/08/26 17:48:05;;;;;;;12.23;9.65;;;;;;;28.98;41.77;97301.41;10326929;28;20117;-55
2023/08/26 17:53:04;;;;;;;18.60;10.30;;;;;;;28.77;42.53;97307.56;10326485;28;20061;-54
2023/08/26 17:58:03;;;;;;;11.93;9.30;;;;;;;28.55;42.69;97319.13;10327726;28;20021;-54
2023/08/26 18:03:02;;;;;;;14.85;10.95;;;;;;;28.50;43.40;97333.78;10326118;28;21100;-54
2023/08/26 18:08:02;;;;;;;13.00;11.57;;;;;;;28.23;43.49;97332.38;10318963;28;20104;-55
2023/08/26 18:13:06;;;;;;;24.85;12.75;;;;;;;27.97;44.12;97315.75;10321122;28;20117;-54
2023/08/26 18:18:05;;;;;;;17.92;13.07;;;;;;;27.93;44.85;97354.28;10318229;28;20116;-55
2023/08/26 18:23:05;;;;;;;19.45;13.48;;;;;;;27.65;45.36;97345.75;10321287;28;20060;-54
2023/08/26 18:28:04;;;;;;;15.63;11.85;;;;;;;27.62;45.81;97362.84;10323111;28;20104;-54
2023/08/26 18:33:04;;;;;;;16.85;11.20;;;;;;;27.34;45.32;97337.41;10325008;28;20472;-54
2023/08/26 18:38:03;;;;;;;14.57;10.45;;;;;;;27.33;46.09;97364.16;10325113;28;20049;-54
2023/08/26 18:43:03;;;;;;;13.02;10.82;;;;;;;26.88;46.35;97321.38;10322477;28;20468;-57
2023/08/26 18:48:02;;;;;;;12.07;9.85;;;;;;;27.07;46.47;97368.78;10339085;28;20503;-54
2023/08/26 18:53:01;;;;;;;16.65;10.15;;;;;;;26.94;46.86;97391.00;10325393;28;20105;-54
2023/08/26 18:58:02;;;;;;;13.57;9.60;;;;;;;26.77;46.83;97386.88;10324820;28;20802;-54
2023/08/26 19:03:01;;;;;;;15.02;9.93;;;;;;;26.55;47.42;97387.56;10323554;28;20109;-55
2023/08/26 19:08:00;;;;;;;15.50;10.80;;;;;;;26.48;47.73;97388.13;10322442;28;20037;-54
2023/08/26 19:12:59;;;;;;;18.40;11.50;;;;;;;26.32;48.59;97369.72;10324214;28;20098;-55
2023/08/26 19:17:58;;;;;;;15.38;12.55;;;;;;;26.24;49.88;97372.09;10321751;28;20135;-55
2023/08/26 19:22:57;;;;;;;13.55;10.75;;;;;;;25.53;50.16;97265.34;10322735;28;20069;-55
2023/08/26 19:27:56;;;;;;;14.70;12.07;;;;;;;26.12;50.38;97357.81;10323141;28;20025;-54
2023/08/26 19:32:55;;;;;;;20.95;11.10;;;;;;;26.19;50.71;97391.00;10324156;28;20529;-54
2023/08/26 19:37:54;;;;;;;15.98;11.07;;;;;;;25.98;51.02;97390.69;10322235;28;20053;-54
2023/08/26 19:42:54;;;;;;;15.82;11.32;;;;;;;25.74;51.51;97370.19;10323016;28;20034;-54
2023/08/26 19:47:54;;;;;;;16.83;11.40;;;;;;;25.84;51.44;97388.16;10313108;28;20120;-55
2023/08/26 19:52:53;;;;;;;15.68;11.40;;;;;;;25.71;51.63;97393.44;10322607;28;20065;-55
2023/08/26 19:57:52;;;;;;;14.30;11.48;;;;;;;25.47;51.92;97362.22;10317960;28;20128;-55
2023/08/26 20:02:52;;;;;;;16.05;11.77;;;;;;;25.57;52.53;97383.75;10321009;28;20037;-54
2023/08/26 20:07:51;;;;;;;19.15;11.27;;;;;;;25.27;53.11;97354.75;10320468;28;20073;-54
2023/08/26 20:12:52;;;;;;;15.00;12.23;;;;;;;25.23;53.25;97354.13;10321872;28;20455;-54
2023/08/26 20:17:51;;;;;;;16.90;12.10;;;;;;;25.33;54.12;97386.22;10320972;28;20059;-54
2023/08/26 20:22:50;;;;;;;17.25;12.55;;;;;;;24.90;54.65;97342.13;10323455;28;20029;-54
2023/08/26 20:27:48;;;;;;;18.52;12.88;;;;;;;25.05;55.42;97395.16;10320679;28;20037;-55
2023/08/26 20:32:48;;;;;;;19.13;12.60;;;;;;;24.97;56.03;97400.13;10321628;28;20033;-55
2023/08/26 20:37:47;;;;;;;18.60;13.35;;;;;;;24.86;56.21;97396.34;10319437;28;20531;-55
2023/08/26 20:42:46;;;;;;;16.15;12.35;;;;;;;24.75;56.71;97401.47;10322499;28;20515;-55
2023/08/26 20:47:45;;;;;;;15.48;12.07;;;;;;;24.70;56.99;97403.56;10319909;28;20769;-55
2023/08/26 20:52:44;;;;;;;15.95;12.35;;;;;;;24.58;57.10;97393.75;10317763;28;20120;-54
2023/08/26 20:57:43;;;;;;;14.38;11.82;;;;;;;24.62;57.71;97405.88;10322366;28;20033;-54
2023/08/26 21:02:42;;;;;;;16.55;12.93;;;;;;;24.46;58.78;97411.28;10321282;28;20532;-54
2023/08/26 21:07:41;;;;;;;17.73;12.93;;;;;;;24.38;58.91;97416.19;10325528;28;20071;-54
2023/08/26 21:12:40;;;;;;;17.55;13.35;;;;;;;24.07;59.29;97383.59;10328628;28;20060;-54
2023/08/26 21:17:39;;;;;;;16.50;11.82;;;;;;;24.18;59.61;97407.69;10329286;28;20096;-54
2023/08/26 21:22:39;;;;;;;18.30;12.60;;;;;;;24.15;59.63;97407.00;10328136;28;20033;-54
2023/08/26 21:27:38;;;;;;;18.10;13.75;;;;;;;24.08;59.76;97416.28;10325429;28;20559;-54
2023/08/26 21:32:37;;;;;;;19.73;14.48;;;;;;;23.96;60.01;97421.38;10326959;28;20496;-55
2023/08/26 21:37:37;;;;;;;19.27;14.10;;;;;;;23.89;60.64;97412.09;10329309;28;20577;-54
2023/08/26 21:42:36;;;;;;;17.77;14.70;;;;;;;23.49;61.78;97377.41;10324514;28;20112;-54
2023/08/26 21:47:35;;;;;;;18.88;15.93;;;;;;;23.47;62.29;97394.31;10328234;28;20059;-54
2023/08/26 21:52:34;;;;;;;20.40;16.35;;;;;;;23.41;61.99;97376.97;10328753;28;20117;-54
2023/08/26 21:57:33;;;;;;;21.33;16.75;;;;;;;23.48;62.79;97391.56;10325745;28;20033;-54
2023/08/26 22:02:32;;;;;;;22.88;18.23;;;;;;;23.49;63.65;97424.19;10326197;28;20072;-54
2023/08/26 22:07:31;;;;;;;20.08;16.20;;;;;;;23.37;64.24;97423.09;10326043;28;20033;-55
2023/08/26 22:12:30;;;;;;;18.58;14.25;;;;;;;23.20;64.71;97432.84;10320283;28;20132;-54
2023/08/26 22:17:29;;;;;;;17.13;14.18;;;;;;;23.07;65.07;97431.00;10319961;28;20060;-55
2023/08/26 22:22:28;;;;;;;17.00;14.88;;;;;;;22.82;65.21;97403.28;10318842;28;20108;-54
2023/08/26 22:27:27;;;;;;;22.30;15.13;;;;;;;22.89;65.68;97431.09;10325646;28;20025;-54
2023/08/26 22:32:26;;;;;;;16.38;13.60;;;;;;;22.88;65.81;97429.41;10325589;28;20067;-54
2023/08/26 22:37:25;;;;;;;20.75;14.65;;;;;;;22.79;65.97;97429.91;10322112;28;20031;-55
2023/08/26 22:42:24;;;;;;;17.20;14.10;;;;;;;22.75;66.54;97428.38;10326493;28;20156;-54
2023/08/26 22:47:27;;;;;;;19.67;14.80;;;;;;;22.65;67.39;97419.19;10325361;28;20125;-54
2023/08/26 22:52:26;;;;;;;21.02;13.75;;;;;;;22.55;67.64;97410.91;10322920;28;20061;-54